PH-0051 weather

Philippine Coast Guard Manila Ready Force Base Helipad
Manila South Harbor, Philippines

Public forecast

Using degrees Celsius for public forecast. Weather courtesy of forecast.io.

Closest aviation weather report (METAR) to Philippine Coast Guard Manila Ready Force Base Helipad

Closest report is Ninoy Aquino International Airport, 5.4 nm (9.9 km) SE. Retrieved 2020/08/05 16:00 UTC (45 minutes ago):

RPLL 051600Z AUTO 0000KT 9999 BKN190/// 28/24 Q1009

Closest aviation forecast (TAF) to Philippine Coast Guard Manila Ready Force Base Helipad

Closest forecast is Ninoy Aquino International Airport, 5.4 nm (9.9 km) SE. Retrieved 2020/08/05 12:33 UTC (4 hours ago):

TAF RPLL 051100Z 0512/0618 13004KT 9999 FEW022 SCT100 BKN300 TX32/0606Z TN25/0521Z TEMPO 0512/0518 08010KT 7000 -TSRA FEW020CB SCT022 BKN100 TEMPO 0518/0524 10008KT 8000 -SHRA FEW020CB SCT022 BKN100